LSMA 270920Z AUTO VRB02KT 9999NDV NCD 02/M00 Q1027 RMK EDAC 270920Z 16004KT 120V210 CAVOK 04/01 Q1027 ETHA 270920Z AUTO 23002KT 9999 // ////// M01/M02 Q1025 /// LFLP 270930Z AUTO VRB02KT CAVOK 04/02 Q1026 NOSIG LIMW 270920Z AUTO VRB02KT 9999 NCD M02/M05 Q1029 EDMA 270920Z 03003KT 1400 R25/1500D BR BKN001 OVC004 M01/M01 Q1027 EHMA 270925Z AUTO 16020KT 9999 FEW034 BKN039 BKN044 07/04 Q1018 LFSB 270930Z AUTO 13009KT 100V160 CAVOK 06/03 Q1025 NOSIG LIME 270920Z 01003KT 9999 FEW045 09/02 Q1029 NOSIG EDDB 270920Z AUTO 15007KT 140V200 CAVOK 05/03 Q1028 NOSIG LSZB 270920Z 14004KT CAVOK 01/00 Q1027 EBLG 270920Z 17015KT 9999 FEW030 07/01 Q1020 NOSIG LIPE 270920Z 27006KT 240V300 8000 NSC 07/05 Q1029 EDVE 270920Z 09003KT CAVOK 02/02 Q1025 EDDW 270920Z AUTO 13006KT CAVOK 03/02 Q1023 NOSIG LIPO 270920Z AUTO 03005KT 350V060 9999 BKN056/// 10/03 Q1029 ETHB 270920Z 18014KT 9999 BKN130 BKN230 06/02 Q1022 BLU ETSB 270920Z AUTO 24004KT //// // ////// 03/03 Q1023 /// EHHW 270925Z AUTO 19024KT 9999 -DZ FEW002/// BKN043/// OVC048/// 08/06 Q1018 LSZC 270920Z AUTO 22004KT CAVOK 03/00 Q1027 LFMD 270930Z AUTO 36004KT 310V050 CAVOK 13/05 Q1027 NOSIG ETHC 270920Z 16005KT 9999 BKN190 04/03 Q1024 BLU LIPC 270855Z 28010KT 9999 FEW040 07/05 Q1028 RMK FEW VIS MIN 9999 WIND THR11 28008KT WIND THR29 28008KT BLU LFLB 270930Z AUTO 13004KT 090V160 CAVOK 05/03 Q1027 NOSIG LIVC 270855Z AUTO 05023KT //// M05/M06 Q1024 LFGA 270930Z AUTO 18010KT CAVOK 06/03 Q1025 EHDL 270925Z AUTO 16008KT 090V220 9999 DZ FEW015CB OVC053 05/04 Q1020 BLU LFSD 270930Z AUTO 16005KT 9999 OVC007 05/04 Q1024 LFGJ 270930Z AUTO 16004KT 9999 SCT009 BKN120 BKN140 06/04 Q1025 NOSIG EDLW 270920Z 16015KT CAVOK 08/02 Q1021 EDDC 270920Z AUTO 16005KT 9999 FEW002 02/02 Q1028 TEMPO 0800 BCFG LSMD 270920Z AUTO 13004KT 5000NDV BKN002 BKN007 02/01 Q1027 RMK EDDL 270920Z AUTO 15013KT CAVOK 07/03 Q1021 NOSIG EHEH 270925Z AUTO 17005KT 140V210 9999 DZ OVC053 06/05 Q1020 BLU NOSIG EBLB 270925Z AUTO 19006KT 9999 OVC081/// 04/01 Q1021 BLU LSME 270920Z AUTO 00000KT 5000NDV BR OVC005 02/02 Q1027 RMK LFSG 270930Z AUTO 19009KT 9999 FEW009 OVC110 04/03 Q1024 EDDE 270920Z AUTO 18007KT CAVOK 04/02 Q1026 NOSIG LIPY 270920Z AUTO 20005KT 9999 FEW039/// SCT052/// 11/08 Q1026 ETHS 270920Z AUTO 19007KT 6000 // ////// 04/03 Q1024 /// LIRQ 270920Z 02007KT 330V110 9999 FEW045 13/04 Q1027 EDDF 270920Z AUTO VRB01KT 0800 0550 R25R/P2000N R25C/P2000N R25L/1500N R18/1100U FG BKN002 02/02 Q1026 BECMG 2000 BCFG SCT002 EDNY 270920Z VRB03KT 9999 OVC010 00/M01 Q1027 ETHF 270920Z 19003KT 9999 FEW010 SCT130 BKN180 05/03 Q1025 BLU LIVF 270855Z 24005KT 9999 SCT020 SCT025 06/06 Q1024 LSGG 270920Z VRB01KT CAVOK 06/03 Q1026 NOSIG LIMJ 270920Z 02015KT CAVOK 11/03 Q1026 LIPL 270855Z 07007KT CAVOK 08/02 Q1027 RMK BKN BKN100 VIS MIN 9999 WIND THR31 06007KT WIND THR13 06005KT BLU ETIC 270940Z AUTO 00000KT 5000 BR OVC002 01/00 A3034 RMK AO2 SLP294 FZRANO $ LSZG 270920Z VRB02KT 5000 SCT005 BKN010 03/03 Q1026 LFLS 270930Z AUTO 07013KT CAVOK 06/02 Q1025 NOSIG EHGG 270925Z AUTO 17009KT 140V210 9999 -UP NSC 06/03 Q1020 REDZUP NOSIG EDFH 270920Z 14016KT 9999 3300E BCFG BKN003 03/03 Q1022 EDHI 270920Z AUTO 13005KT 080V160 9000 // BKN220/// 04/04 Q1023 EDDH 270920Z AUTO 16008KT CAVOK 04/03 Q1024 NOSIG EDDV 270920Z AUTO 16007KT 120V190 CAVOK 06/03 Q1024 NOSIG EDQM 270920Z 16003KT 9999 FEW004 00/M00 Q1026 ETIH 270855Z AUTO 00000KT 0400 FG VV001 00/M02 A3035 RMK AO2 FZDZE04 SLP302 P0000 60001 T00041018 57009 RVRNO ETNH 270920Z AUTO 13005KT 7000 // ////// 04/03 Q1022 /// ETSH 270920Z 13005KT 9000 FEW250 SCT320 03/02 Q1027 BLU+ LFTH 270930Z AUTO VRB02KT CAVOK 15/08 Q1026 NOSIG ETIK 270929Z AUTO 07005KT 0800 R24/0300VP1500 FZFG VV002 M01/M01 A3033 RMK AO2 FZDZE0855FZDZB27E29 CIG 000V002 SLP293 $ ETSI 270920Z AUTO 17003KT 3800 // ////// 01/00 Q1028 /// LOWI 270920Z 24003KT 180V280 CAVOK 01/M02 Q1028 NOSIG LIPS 270855Z /////KT CAVOK 09/04 Q1028 RMK SKC VIS MIN 9999 WIND THR26 35003KT WIND THR08 35004KT BLU LKKV 270930Z VRB01KT 3000 0900NW R29/P2000N BCFG BR SCT003 01/00 Q1027 EDSB 270920Z VRB02KT 3000 BR SCT002 OVC004 04/04 Q1026 ETEB 270943Z AUTO 13005KT 0200 +FZDZ FZFG VV000 M01/M01 A3030 RMK AO2 FZDZB0857E12UPB12E13FZRAB13E29FZDZB29E38FZDZB42 SLP299 RVRNO $ LKKB 270900Z 21006KT 0350 R24/0350N FG SCT002 00/M00 Q1029 NOSIG EDHK 270920Z 16008KT 8000 SCT003 04/04 Q1023 LOWK 270920Z VRB02KT 9999 OVC009 01/M00 Q1031 BECMG BKN010 EBBL 270925Z AUTO VRB02KT 9999 -RA OVC064/// 07/04 Q1020 BLU EDDK 270920Z AUTO 14009KT CAVOK 07/03 Q1023 NOSIG ETNL 270920Z 12005KT 8000 FEW062 SCT330 06/06 Q1025 BLU+ ETHL 270920Z VRB01KT 0400 FZFG VV001 M02/M03 Q1026 RED LFMC 270930Z AUTO VRB02KT 9999 ////// 07/03 Q1027 ETSL 270920Z AUTO 05001KT 9999 // ////// M01/M01 Q1026 /// EHLW 270925Z AUTO 17011KT 130V200 9999 -RA FEW015CB SCT029 BKN035 OVC043 06/04 Q1019 BLU EDDP 270920Z AUTO 17008KT CAVOK 04/02 Q1027 NOSIG EHLE 270925Z AUTO 17011KT 140V200 9999 DZRA OVC042 06/05 Q1019 NOSIG LSGC 270920Z VRB02KT CAVOK 07/M04 Q1024 LIMZ 270920Z AUTO VRB01KT 9999 NCD 07/02 Q1028 LOWL 270920Z AUTO 07006KT 9999 FEW007 BKN008 BKN009 04/03 Q1029 BECMG BKN010 LJLJ 270930Z VRB02KT 9999 FEW003 02/02 Q1029 NOSIG LSZL 270920Z AUTO 00000KT 9999NDV NCD 05/M03 Q1030 RMK EDHL 270920Z 15006KT 110V190 9999 SCT003 04/03 Q1025 LSZA 270920Z VRB01KT 9999 FEW045 06/00 Q1029 ELLX 270920Z 17008KT 130V190 3000 BR BKN003 03/03 Q1023 BECMG 5000 BKN005 LFSX 270930Z AUTO 11006KT 9999 FEW006 BKN120 BKN170 04/04 Q1024 LFLL 270930Z 14005KT CAVOK 07/03 Q1025 NOSIG EDFM 270920Z VRB02KT 9000 SCT002 03/02 Q1026 LFML 270930Z AUTO 26003KT CAVOK 12/06 Q1027 NOSIG ETGG 270920Z AUTO 17008KT 9999 // ////// 05/04 Q1022 /// LSMM 270920Z AUTO 00000KT 9999NDV NCD M01/M02 Q1027 RMK EDJA 270920Z 00000KT CAVOK 00/M01 Q1026 ETWM 270920Z AUTO 16006KT //// // ////// 05/02 Q1021 /// LFJL 270930Z AUTO 13008KT 9999 FEW005 OVC110 05/04 Q1024 NOSIG LIML 270920Z VRB01KT CAVOK 08/04 Q1029 NOSIG LIMC 270920Z VRB02KT CAVOK 09/01 Q1029 NOSIG EDLN 270920Z 14006KT 100V170 CAVOK 07/04 Q1021 EDDG 270920Z AUTO 12005KT 050V180 CAVOK 05/01 Q1022 NOSIG EDDM 270920Z AUTO 10006KT 060V120 0350 0300 R08L/0400N R08R/0450N FZFG VV003 M01/M01 Q1027 BECMG 0600 LFSN 270930Z AUTO 13005KT 100V170 9999 FEW007 OVC110 05/04 Q1024 LFSO 270930Z AUTO 14005KT CAVOK 05/04 Q1023 ETSN 270920Z 08002KT 0350 FG VV001 00/M00 Q1027 RED LFMN 270930Z 32013KT CAVOK 11/M01 Q1027 NOSIG EDLV 270920Z 14007KT 9000 -RA NSC 06/04 Q1021 ETHN 270920Z 15009KT 9999 FEW140 SCT240 03/00 Q1025 BLU+ ETNN 270920Z 10007KT 9999 BKN090 06/03 Q1021 BLU ETMN 270920Z 17008KT 9999 BKN130 BKN180 04/02 Q1022 BLU EDDN 270920Z AUTO 12007KT 3400 BR BKN002 01/01 Q1028 BECMG 5000 BKN003 EDMO 270920Z AUTO VRB02KT 9999 // NCD 00/M00 Q1026 EDLP 270920Z 16009KT 130V190 CAVOK 07/01 Q1022 LIVP 270855Z VRB03KT CAVOK M03/M12 Q1023 LSMP 270920Z AUTO VRB01KT 9999NDV NCD 03/01 Q1027 RMK LIRZ 270920Z AUTO 04017KT 9999 BKN044/// 11/06 Q1025 LIMH 270855Z AUTO 05015KT //// M07/M18 Q1025 LIRP 270915Z 13005KT CAVOK 12/04 Q1026 NOSIG LKLN 270900Z AUTO VRB01KT 0300 FG VV002 M01/M01 Q1029 LIVM 270855Z AUTO 28005KT 210V320 //// 04/02 Q1028 LJPZ 270930Z VRB01KT CAVOK 10/04 Q1028 LKPR 270930Z 22006KT 4500 0500W R24/P2000N R30/P2000N BR BCFG SCT001 01/01 Q1028 TEMPO 0500 FG BKN001 LDPL 270930Z 07015KT CAVOK 12/02 Q1027 TEMPO 06015G25KT ETAR 270915Z AUTO 00000KT 9999 SCT004 SCT140 03/02 A3025 RMK AO2 SLP258 $ LIVE 270855Z 02006KT CAVOK M01/M09 Q1025 RMK SKC VIS MIN 9999 LSZR 270920Z VRB02KT 9999 SCT007 BKN015 03/03 Q1027 RMK A LDRI 270930Z 06012G22KT CAVOK 12/M01 Q1027 LIPR 270920Z 30013KT 9999 FEW035 09/05 Q1028 LIPI 270855Z 34006KT CAVOK 09/03 Q1028 RMK FEW FEW200 VIS MIN 9999 WIND THR06 02005KT WIND THR24 36004KT BLU LIVR 270855Z 33003KT CAVOK M03/M16 Q1026 RMK SKC MON LIB VIS MIN 9999 LIPQ 270920Z AUTO 36006KT 9999 NCD 10/05 Q1029 EDDR 270920Z AUTO 13004KT 090V170 9999 OVC005 04/03 Q1024 NOSIG LFMY 270930Z AUTO 06004KT 020V090 CAVOK 12/04 Q1027 LOWS 270920Z 33004KT 1200 9000S R15/P1500D R33/P1500U BCFG FEW002 01/M00 Q1028 TEMPO 0600 BCFG LSZS 270920Z VRB01KT CAVOK M10/M12 Q1026 RMK F TL170 EBDT 270925Z AUTO 17007KT 9999 -RA OVC056/// 07/04 Q1020 BLU ETNS 270920Z AUTO 16009KT 9000 // ////// 04/03 Q1022 /// EDTY 270920Z 10008KT 9999 4500SW BR NSC 00/00 Q1026 EDGS 270920Z 16011KT CAVOK 04/01 Q1023 LSGS 270920Z VRB03KT 9999 FEW150 01/M04 Q1028 EKSB 270920Z AUTO 16007KT 9999 SCT180/// BKN230/// 06/05 Q1022 ETAD 270903Z AUTO 00000KT 9999 FEW005 SCT095 03/02 A3020 RMK AO2 SLP231 $ LFST 270930Z AUTO 17006KT 140V200 9999 BKN007 OVC170 05/04 Q1025 BECMG FEW005 BKN130 EDDS 270920Z AUTO VRB01KT 0350 0300 R07/1800U FZFG FEW002 M01/M01 Q1025 BECMG 2000 BCFG EPSC 270930Z 15007KT 7000 OVC002 06/06 Q1028 LIMF 270920Z 13002KT CAVOK 07/00 Q1028 LIPH 270920Z 01003KT CAVOK 10/02 Q1029 LIPZ 270920Z 03007KT CAVOK 10/02 Q1029 NOSIG LIPX 270920Z 23003KT CAVOK 08/02 Q1029 EHVL 270943Z AUTO 18018KT 5000 -RA FEW005 SCT006 BKN007 07/06 Q1017 YLO EHVK 270925Z AUTO 15006KT 110V180 9999 DZ OVC058 06/04 Q1020 BLU EDXW 270920Z 17014KT CAVOK 05/04 Q1021 ETOU 270900Z AUTO 13005KT 4400 BR OVC003 04/03 A3030 RMK AO2 SLP269 FZRANO $ ETNT 270920Z AUTO 18007KT //// // ////// 05/02 Q1021 /// ETNW 270920Z 17010KT 9999 SCT160 BKN240 05/03 Q1023 BLU+ LOXZ 270920Z VRB01KT 0300 R26/0600N FZFG BKN002 M03/M03 Q1029 NOSIG EHBK 270925Z AUTO 18007KT 9999 NSC 08/03 Q1020 NOSIG LSZH 270920Z 13003KT 070V180 3500 BR OVC004 02/01 Q1027 TEMPO 5000 BKN005

METAR Messwerte

Klicken Sie auf einen Ort, um die 36h-Historie abzurufen

Ortsname
Ländercode / m ü. NN
Zeit Temperatur Taupunkt Rel.
Luftfeuchte
Luftdruck:
Altimeter
NN
Station
Wind in Beaufort
(Knoten)
Sichtweite
(Meter)
Wolken
(Meter über Grund)
Wettererscheinung
ALPNACH
CH 441
So 27.11. 10:202-087 %1027
1030
975
Uml 1 (2)   
ALTENBURG-NOBITZ
DE 193
So 27.11. 10:204181 %1027
1028
1004
SSO 2 (4)
OSO - SSW
>= 10000Nicht signifikant 
ALTENSTADT/SCHON
DE 738
So 27.11. 10:20-1-293 %1025
1031
939
SW 1 (2)>= 10000  
ANNECY/MEYTHET
FR 460
So 27.11. 10:304287 %1026
1028
971
Uml 1 (2)>= 10000Nicht signifikant 
AOSTA ARPT
IT 554
So 27.11. 10:20-2-580 %1029
1034
963
Uml 1 (2)>= 10000  
AUGSBURG/MULHAUS
DE 462
So 27.11. 10:20-1-1100 %1027
1030
972
NNO 2 (3)1400Bedeckt (120)
Stark bewölkt (30)
Nebeldunst
AWG-1 SEA
NL 27
So 27.11. 10:257481 %1018
1018
1015
SSO 5 (20)>= 10000Stark bewölkt (1300)
Stark bewölkt (1200)
Leicht bewölkt (1000)
 
BALE/MULHOUSE
FR 262
So 27.11. 10:306381 %1025
1026
994
SO 3 (9)
O - SSO
>= 10000Nicht signifikant 
BERGAMO/ORIO SER
IT 239
So 27.11. 10:209261 %1029
1030
1000
N 2 (3)>= 10000Leicht bewölkt (1400) 
BERLIN/BRANDERNB
DE 48
So 27.11. 10:205387 %1028
1028
1022
SSO 3 (7)
SO - SSW
>= 10000Nicht signifikant 
BERN/BELP
CH 510
So 27.11. 10:201093 %1027
1030
967
SO 2 (4)>= 10000Nicht signifikant 
BIERSET/LIEGE (C
BE 187
So 27.11. 10:207166 %1020
1021
998
S 4 (15)>= 10000Leicht bewölkt (910) 
BOLOGNA/BORGO (A
IT 37
So 27.11. 10:207587 %1029
1029
1025
W 2 (6)
WSW - WNW
8000Nicht signifikant 
BRAUNSCHWEIG
DE 83
So 27.11. 10:2022100 %1025
1026
1015
O 2 (3)>= 10000Nicht signifikant 
BREMEN
DE 5
So 27.11. 10:203293 %1023
1023
1022
SO 2 (6)>= 10000Nicht signifikant 
BRESCIA/MONTICHI
IT 104
So 27.11. 10:2010362 %1029
1029
1016
NNO 2 (5)
N - ONO
>= 10000Stark bewölkt (1700) 
BUCKEBURG(GER-AR
DE 69
So 27.11. 10:206275 %1022
1022
1014
S 4 (14)>= 10000Stark bewölkt (7000)
Stark bewölkt (4000)
 
BUECHEL
DE 477
So 27.11. 10:2033100 %1023
1026
967
WSW 2 (4)   
BUITENGAATS
NL 10
So 27.11. 10:258687 %1018
1018
1017
S 6 (24)>= 10000Bedeckt (1500)
Stark bewölkt (1300)
Leicht bewölkt (61)
Nieselregen (schwach)
BUOCHS
CH 445
So 27.11. 10:203081 %1027
1030
974
SW 2 (4)>= 10000Nicht signifikant 
CANNES/MANDELIEU
FR 2
So 27.11. 10:3013558 %1027
1027
1027
N 2 (4)
NW - NO
>= 10000Nicht signifikant 
CELLE (GER-ARMY)
DE 35
So 27.11. 10:204393 %1024
1024
1020
SSO 2 (5)>= 10000Stark bewölkt (5800) 
CERVIA (IT-AFB)
IT 10
So 27.11. 09:557587 %1028
1028
1027
W 3 (10)>= 10000Leicht bewölkt (1200) 
CHAMBERY/AIX BAI
FR 234
So 27.11. 10:305387 %1027
1028
999
SO 2 (4)
O - SSO
>= 10000Nicht signifikant 
CIMONE MOUNTAIN
IT 2139
So 27.11. 09:55-5-693 %1024
1045
790
NO 6 (23)   
COLMAR HOUSSEN
FR 191
So 27.11. 10:306381 %1025
1026
1002
S 3 (10)>= 10000Nicht signifikant 
DEELEN RNLAFB
NL 49
So 27.11. 10:255493 %1020
1020
1014
SSO 3 (8)
O - SW
>= 10000Bedeckt (1600)
Leicht bewölkt Cb (460)
Nieselregen
DIJON/LONGVIC(FA
FR 218
So 27.11. 10:305493 %1024
1025
998
SSO 2 (5)>= 10000Bedeckt (210) 
DOLE TAVAUX
FR 191
So 27.11. 10:306487 %1025
1026
1002
SSO 2 (4)>= 10000Stark bewölkt (4300)
Stark bewölkt (3700)
Wolkig (270)
 
DORTMUND/WICKEDE
DE 122
So 27.11. 10:208266 %1021
1021
1006
SSO 4 (15)>= 10000Nicht signifikant 
DRESDEN/KLOTZSCH
DE 227
So 27.11. 10:2022100 %1028
1029
1001
SSO 2 (5)>= 10000
Bald zeitweise: 800
Leicht bewölkt (61) Bald zeitweise: Nebel-Bänke
DUBENDORF
CH 436
So 27.11. 10:202193 %1027
1030
975
SO 2 (4) Stark bewölkt (210)
Stark bewölkt (61)
 
DUESSELDORF
DE 37
So 27.11. 10:207376 %1021
1021
1017
SSO 4 (13)>= 10000Nicht signifikant 
EINDHOVEN RNLAFB
NL 20
So 27.11. 10:256593 %1020
1020
1018
S 2 (5)
SO - SSW
>= 10000Bedeckt (1600)Nieselregen
ELSENBORN (MIL)
BE 563
So 27.11. 10:254181 %1021
1024
955
S 2 (6)>= 10000Bedeckt (2500) 
EMMEN
CH 427
So 27.11. 10:2022100 %1027
1030
976
Windstill Bedeckt (150)Nebeldunst
EPINAL/MIRECOURT
FR 320
So 27.11. 10:304393 %1024
1026
986
S 3 (9)>= 10000Bedeckt (3400)
Leicht bewölkt (270)
 
ERFURT/BINDERSLE
DE 314
So 27.11. 10:204287 %1026
1028
988
S 3 (7)>= 10000Nicht signifikant 
FALCONARA (IT-AF
IT 11
So 27.11. 10:2011882 %1026
1026
1025
SSW 2 (5)>= 10000Wolkig (1600)
Leicht bewölkt (1200)
 
FASSBERG (GER-AF
DE 71
So 27.11. 10:204393 %1024
1024
1015
S 3 (7)6000  
FIRENZE/PERETOLA
IT 33
So 27.11. 10:2013454 %1027
1027
1023
NNO 3 (7)
NNW - OSO
>= 10000Leicht bewölkt (1400) 
FRANKFURT MAIN A
DE 113
So 27.11. 10:2022100 %1026
1027
1012
Uml 1 (1)800
Bald Übergang zu: 2000
Stark bewölkt (61)Nebel
Bald Übergang zu: Nebel-Bänke
FRIEDRICHSHAFEN
DE 411
So 27.11. 10:200-193 %1027
1030
978
Uml 2 (3)>= 10000Bedeckt (300) 
FRITZLAR (GER-AR
DE 171
So 27.11. 10:205387 %1025
1026
1004
S 2 (3)>= 10000Stark bewölkt (5500)
Wolkig (4000)
Leicht bewölkt (300)
 
FRONTONE
IT 549
So 27.11. 09:5566100 %1024
1026
959
WSW 2 (5)>= 10000Wolkig (760)
Wolkig (610)
 
GENEVA/COINTRIN
CH 411
So 27.11. 10:206381 %1026
1028
977
Uml 1 (1)>= 10000Nicht signifikant 
GENOVA/SESTRI
IT 3
So 27.11. 10:2011358 %1026
1026
1026
NNO 4 (15)>= 10000Nicht signifikant 
GHEDI (IT-AFB)
IT 96
So 27.11. 09:558266 %1027
1027
1015
ONO 3 (7)>= 10000Nicht signifikant 
GRAFENWOEHR
DE 414
So 27.11. 10:401093 %1027
1030
978
Windstill5000Bedeckt (61)Nebeldunst
GRENCHEN
CH 428
So 27.11. 10:2033100 %1026
1028
975
Uml 1 (2)5000Stark bewölkt (300)
Wolkig (150)
 
GRENOBLE/ST. GEO
FR 386
So 27.11. 10:306275 %1025
1027
979
ONO 4 (13)>= 10000Nicht signifikant 
GRONINGEN/EELDE
NL 2
So 27.11. 10:256381 %1020
1020
1020
S 3 (9)
SO - SSW
>= 10000Nicht signifikantNiederschläge (schwach)
HAHN
DE 494
So 27.11. 10:2033100 %1022
1025
964
SO 5 (16)>= 10000Stark bewölkt (91)Nebel-Bänke
HAMBURG/FINKENWE
DE 5
So 27.11. 10:2044100 %1023
1023
1022
SO 2 (5)
O - SSO
9000Stark bewölkt (6700) 
HAMBURG/FUHLSBUT
DE 8
So 27.11. 10:204393 %1024
1024
1023
SSO 3 (8)>= 10000Nicht signifikant 
HANNOVER
DE 53
So 27.11. 10:206381 %1024
1024
1018
SSO 3 (7)
OSO - S
>= 10000Nicht signifikant 
HOF
DE 578
So 27.11. 10:200-0100 %1026
1030
958
SSO 2 (3)>= 10000Leicht bewölkt (120) 
HOHENFELS (USA-A
DE 436
So 27.11. 09:550-286 %1028
1031
976
Windstill400 Nebel
HOHN (GER-AFB)
DE 6
So 27.11. 10:204393 %1022
1022
1021
SO 2 (5)7000  
HOLZDORF
DE 79
So 27.11. 10:203293 %1027
1027
1017
SO 2 (5)9000Wolkig (9800)
Leicht bewölkt (7600)
 
HYERES/LE PALYVE
FR 3
So 27.11. 10:3015863 %1026
1026
1026
Uml 1 (2)>= 10000Nicht signifikant 
ILLESHEIM (USA-A
DE 326
So 27.11. 10:29-1-1100 %1027
1029
988
ONO 2 (5)800 Nebel (gefrierend)
INGOLSTADT(GER-M
DE 366
So 27.11. 10:201093 %1028
1030
984
S 2 (3)3800  
INNSBRUCK AIRPOR
AT 570
So 27.11. 10:201-280 %1028
1032
961
WSW 2 (3)
S - W
>= 10000Nicht signifikant 
ISTRANA (IT-AFB)
IT 42
So 27.11. 09:559471 %1028
1028
1023
N 2 (3)>= 10000Nicht signifikant 
KARLOVY VARY
CZ 600
So 27.11. 10:301093 %1027
1031
956
Uml 1 (1)3000Wolkig (91)Nebel-Bänke
Nebeldunst
KARLSRUHE/BADEN
DE 122
So 27.11. 10:2044100 %1026
1027
1011
Uml 1 (2)3000Bedeckt (120)
Wolkig (61)
Nebeldunst
KATTERBACH (USA-
DE 466
So 27.11. 10:43-1-1100 %1026
1030
971
SO 2 (5)200 Nieselregen (gefrierend, stark)
Nebel (gefrierend)
KBELY
CZ 281
So 27.11. 10:000-0100 %1029
1031
995
SSW 2 (6)350Wolkig (61)Nebel
KIEL/HOLTENAU CI
DE 24
So 27.11. 10:2044100 %1023
1023
1020
SSO 3 (8)8000Wolkig (91) 
KLAGENFURT(CIV/M
AT 450
So 27.11. 10:201-093 %1031
1034
977
Uml 1 (2)>= 10000Bedeckt (270) 
KLEINE-BROGEL(BA
BE 50
So 27.11. 10:257481 %1020
1020
1014
Uml 1 (2)>= 10000Bedeckt (2000)Regen (schwach)
KOELN/BONN
DE 92
So 27.11. 10:207376 %1023
1023
1012
SO 3 (9)>= 10000Nicht signifikant 
LAAGE
DE 40
So 27.11. 10:2066100 %1025
1025
1020
OSO 2 (5)8000Wolkig (10000)
Leicht bewölkt (1900)
 
LAUPHEIM (GER-AR
DE 536
So 27.11. 10:20-2-393 %1026
1030
963
Uml 1 (1)400 Nebel (gefrierend)
LE LUC/LE CANNET
FR 79
So 27.11. 10:307376 %1027
1027
1017
Uml 1 (2)>= 10000  
LECHFELD (GER-AF
DE 548
So 27.11. 10:20-1-1100 %1026
1030
961
NO 1 (1)>= 10000  
LEEUWARDEN RNLAF
NL 1
So 27.11. 10:256487 %1019
1019
1019
S 4 (11)
SO - SSW
>= 10000Bedeckt (1300)
Stark bewölkt (1100)
Wolkig (880)
Leicht bewölkt Cb (460)
Regen (schwach)
LEIPZIG/SCHKEUDI
DE 129
So 27.11. 10:204287 %1027
1028
1011
S 3 (8)>= 10000Nicht signifikant 
LELYSTAD
NL -3
So 27.11. 10:256593 %1019
1019
1019
S 4 (11)
SO - SSW
>= 10000Bedeckt (1300)Nieselregen/Regen
LES EPLATURES
CH 1018
So 27.11. 10:207-445 %1024
1028
907
Uml 1 (2)>= 10000Nicht signifikant 
LEVALDIGI
IT 377
So 27.11. 10:207270 %1028
1029
983
Uml 1 (1)>= 10000  
LINZ (CIV/MIL)
AT 290
So 27.11. 10:204393 %1029
1031
994
ONO 2 (6)>= 10000Stark bewölkt (270)
Stark bewölkt (240)
Leicht bewölkt (210)
 
LJUBLJANA/BRNIK
SI 363
So 27.11. 10:3022100 %1029
1031
986
Uml 1 (2)>= 10000Leicht bewölkt (91) 
LOCARNO
CH 198
So 27.11. 10:205-356 %1030
1031
1006
Windstill   
LUEBECK/BLANKENS
DE 13
So 27.11. 10:204393 %1025
1025
1023
SSO 2 (6)
OSO - S
>= 10000Wolkig (91) 
LUGANO (PVT/AUT)
CH 276
So 27.11. 10:206065 %1029
1030
996
Uml 1 (1)>= 10000Leicht bewölkt (1400) 
LUXEMBOURG (AUT)
LU 374
So 27.11. 10:2033100 %1023
1025
979
S 3 (8)
SO - S
3000
Bald Übergang zu: 5000
Stark bewölkt (91)Nebeldunst
LUXEUIL/ST. SAUV
FR 266
So 27.11. 10:3044100 %1024
1025
992
OSO 2 (6)>= 10000Stark bewölkt (5200)
Stark bewölkt (3700)
Leicht bewölkt (180)
 
LYON/SATOLAS
FR 234
So 27.11. 10:307376 %1025
1026
997
SO 2 (5)>= 10000Nicht signifikant 
MANNHEIM
DE 94
So 27.11. 10:203293 %1026
1027
1015
Uml 1 (2)9000Wolkig (61) 
MARSEILLE/MARIGN
FR 20
So 27.11. 10:3012667 %1027
1027
1025
W 2 (3)>= 10000Nicht signifikant 
MEIERWIK
DE 33
So 27.11. 10:205493 %1022
1022
1018
S 3 (8)>= 10000  
MEIRINGEN
CH 570
So 27.11. 10:20-1-293 %1027
1031
960
Windstill   
MEMMINGEN ALLGAU
DE 625
So 27.11. 10:200-193 %1026
1030
952
Windstill>= 10000Nicht signifikant 
MEPPEN
DE 18
So 27.11. 10:205281 %1021
1021
1019
SSO 2 (6)   
METZ-NANCY-LORRA
FR 259
So 27.11. 10:305493 %1024
1025
993
SO 3 (8)>= 10000Bedeckt (3400)
Leicht bewölkt (150)
 
MILANO/LINATE
IT 109
So 27.11. 10:208476 %1029
1029
1016
Uml 1 (1)>= 10000Nicht signifikant 
MILANO/MALPENSA
IT 221
So 27.11. 10:209157 %1029
1030
1002
Uml 1 (2)>= 10000Nicht signifikant 
MONCHENGLADBACH
DE 38
So 27.11. 10:207481 %1021
1021
1016
SO 2 (6)
O - S
>= 10000Nicht signifikant 
MUENSTER/OSNABRU
DE 46
So 27.11. 10:205175 %1022
1022
1016
OSO 2 (5)
NO - S
>= 10000Nicht signifikant 
MUNICH-FLUGHAFEN
DE 445
So 27.11. 10:20-1-1100 %1027
1030
974
O 2 (6)
ONO - OSO
350 Nebel (gefrierend)
NANCY/ESSEY
FR 214
So 27.11. 10:305493 %1024
1025
998
SO 2 (5)
O - S
>= 10000Bedeckt (3400)
Leicht bewölkt (210)
 
NANCY/OCHEY (FAF
FR 328
So 27.11. 10:305493 %1023
1025
984
SO 2 (5)>= 10000Nicht signifikant 
NEUBURG/DONAU
DE 378
So 27.11. 10:200-0100 %1027
1030
982
O 1 (2)350 Nebel
NICE/COTE D'AZUR
FR 4
So 27.11. 10:3011-143 %1027
1027
1027
NW 4 (13)>= 10000Nicht signifikant 
NIEDERRHEIN
DE 27
So 27.11. 10:206487 %1021
1021
1018
SO 3 (7)9000Nicht signifikantRegen (schwach)
NIEDERSTETTEN (G
DE 466
So 27.11. 10:203081 %1025
1028
970
SSO 3 (9)>= 10000Wolkig (7300)
Leicht bewölkt (4300)
 
NOERVENICH (GAF)
DE 108
So 27.11. 10:206381 %1021
1021
1008
O 3 (7)>= 10000Stark bewölkt (2700) 
NORDHOLZ (GER-NA
DE 23
So 27.11. 10:204287 %1022
1022
1019
S 3 (8)>= 10000Stark bewölkt (5500)
Stark bewölkt (4000)
 
NUERNBERG
DE 312
So 27.11. 10:2011100 %1028
1030
991
OSO 3 (7)3400
Bald Übergang zu: 5000
Stark bewölkt (61)Nebeldunst
OBERPFAFFENHOFEN
DE 587
So 27.11. 10:200-0100 %1026
1030
957
Uml 1 (2)>= 10000  
PADERBORN/LIPPST
DE 211
So 27.11. 10:207166 %1022
1023
997
SSO 3 (9)
SO - S
>= 10000Nicht signifikant 
PAGANELLA MOUNTA
IT 2099
So 27.11. 09:55-3-1250 %1023
1041
793
Uml 2 (3)>= 10000Nicht signifikant 
PAYERNE (MIL/AUT
CH 490
So 27.11. 10:203187 %1027
1030
969
Uml 1 (1)   
PERUGIA
IT 206
So 27.11. 10:2011671 %1025
1025
1000
NO 5 (17)>= 10000Stark bewölkt (1300) 
PIAN ROSA (MTN T
IT 3473
So 27.11. 09:55-7-1841 %1025
1063
668
NO 4 (15)   
PISA (CIV/IT-AFB
IT 1
So 27.11. 10:1512458 %1026
1026
1026
SO 2 (5)>= 10000Nicht signifikant 
PLZEN LINE
CZ 353
So 27.11. 10:00-1-1100 %1029
1032
987
Uml 1 (1)300 Nebel
POINT MARINA/RAV
IT 6
So 27.11. 09:554287 %1028
1028
1027
W 2 (5)
SSW - NW
   
PORTOROZ
SI 2
So 27.11. 10:3010466 %1028
1028
1028
Uml 1 (1)>= 10000Nicht signifikant 
PRAGUE/RUZYNE
CZ 364
So 27.11. 10:3011100 %1028
1030
985
SW 2 (6)4500
Bald zeitweise: 500
Wolkig (30)Nebeldunst
Nebel-Bänke
Bald zeitweise: Nebel
PULA
HR 63
So 27.11. 10:3012250 %1027
1027
1019
ONO 4 (15)
Bald zeitweise:
ONO 4 (15) - 6 (25)
>= 10000Nicht signifikant 
RAMSTEIN (USAFB)
DE 231
So 27.11. 10:153293 %1024
1025
996
Windstill>= 10000Wolkig (4300)
Wolkig (120)
 
RESIA PASS
IT 1684
So 27.11. 09:55-1-955 %1025
1038
837
NNO 2 (6)>= 10000Nicht signifikant 
RHEINECK/ALTENRH
CH 396
So 27.11. 10:2033100 %1027
1029
980
Uml 1 (2)>= 10000Stark bewölkt (460)
Wolkig (210)
 
RIJEKA/OMISALJ
HR 80
So 27.11. 10:3012-140 %1027
1027
1017
ONO 4 (12) - 6 (22)>= 10000Nicht signifikant 
RIMINI (CIV/IT-A
IT 10
So 27.11. 10:209576 %1028
1028
1027
WNW 4 (13)>= 10000Leicht bewölkt (1100) 
RIVOLTO (IT-AFB)
IT 49
So 27.11. 09:559366 %1028
1028
1022
NNW 2 (6)>= 10000Nicht signifikant 
ROLLE PASS
IT 1997
So 27.11. 09:55-3-1636 %1026
1043
806
NNW 2 (3)>= 10000Nicht signifikant 
RONCHI LEGIONARI
IT 6
So 27.11. 10:2010571 %1029
1029
1028
N 2 (6)>= 10000  
SAARBRUECKEN
DE 317
So 27.11. 10:204393 %1024
1026
986
SO 2 (4)
O - S
>= 10000Bedeckt (150) 
SALON (FAFB)
FR 57
So 27.11. 10:3012458 %1027
1027
1020
ONO 2 (4)
NNO - O
>= 10000Nicht signifikant 
SALZBURG AIRPORT
AT 427
So 27.11. 10:201-093 %1028
1031
977
NNW 2 (4)1200
Bald zeitweise: 600
Leicht bewölkt (61)Nebel-Bänke
SAMEDAN
CH 1708
So 27.11. 10:20-10-1285 %1026
1047
835
Uml 1 (1)>= 10000Nicht signifikant 
SCHAFFEN
BE 25
So 27.11. 10:257481 %1020
1020
1017
S 3 (7)>= 10000Bedeckt (1700)Regen (schwach)
SCHLESWIG(GER-NA
DE 22
So 27.11. 10:204393 %1022
1022
1019
SSO 3 (9)9000  
SCHWAEBISCH HALL
DE 398
So 27.11. 10:2000100 %1026
1029
979
O 3 (8)>= 10000Nicht signifikantNebeldunst
SIEGERLAND
DE 595
So 27.11. 10:204181 %1023
1026
953
SSO 4 (11)>= 10000Nicht signifikant 
SION (MIL/CIV/AU
CH 482
So 27.11. 10:201-469 %1028
1031
971
Uml 2 (3)>= 10000Leicht bewölkt (4600) 
SONDERBORG AIRPO
DK 23
So 27.11. 10:206593 %1022
1022
1019
SSO 3 (7)>= 10000Stark bewölkt (7000)
Wolkig (5500)
 
SPANGDAHLEM (USA
DE 365
So 27.11. 10:033293 %1023
1025
980
Windstill>= 10000Wolkig (2900)
Leicht bewölkt (150)
 
STRASBOURG/ENTZH
FR 149
So 27.11. 10:305493 %1025
1026
1007
S 2 (6)
SO - SSW
>= 10000Bedeckt (5200)
Stark bewölkt (210)
 
STUTTGART/ECHTER
DE 374
So 27.11. 10:20-1-1100 %1025
1028
980
Uml 1 (1)350
Bald Übergang zu: 2000
Leicht bewölkt (61)Nebel (gefrierend)
Bald Übergang zu: Nebel-Bänke
SZCZECIN/GOLENIO
PL 47
So 27.11. 10:3066100 %1028
1028
1022
SSO 3 (7)7000Bedeckt (61) 
TORINO/CASELLE
IT 295
So 27.11. 10:207061 %1028
1029
993
SO 1 (2)>= 10000Nicht signifikant 
TREVISO(CIV/IT-A
IT 10
So 27.11. 10:2010257 %1029
1029
1028
N 2 (3)>= 10000Nicht signifikant 
VENEZIA/TESSERA
IT 3
So 27.11. 10:2010257 %1029
1029
1029
NNO 3 (7)>= 10000Nicht signifikant 
VILLAFRANCA(CV/M
IT 67
So 27.11. 10:208266 %1029
1029
1021
SW 2 (3)>= 10000Nicht signifikant 
VLIELAND ISLAND
NL 2
So 27.11. 10:437693 %1017
1017
1017
S 5 (18)5000Stark bewölkt (210)
Wolkig (180)
Leicht bewölkt (150)
Regen (schwach)
VOLKEL RNLAFB
NL 20
So 27.11. 10:256487 %1020
1020
1018
SSO 2 (6)
OSO - S
>= 10000Bedeckt (1800)Nieselregen
WESTERLAND/SYLT
DE 8
So 27.11. 10:205493 %1021
1021
1020
S 4 (14)>= 10000Nicht signifikant 
WIESBADEN (USA-A
DE 141
So 27.11. 10:004393 %1026
1027
1009
SO 2 (5)4400Bedeckt (91)Nebeldunst
WITTMUNDHAVEN(GA
DE 5
So 27.11. 10:205281 %1021
1021
1020
S 3 (7)   
WUNSTORF (GER-AF
DE 57
So 27.11. 10:205387 %1023
1023
1016
S 3 (10)>= 10000Stark bewölkt (7300)
Wolkig (4900)
 
ZELTWEG (MIL)
AT 678
So 27.11. 10:20-3-3100 %1029
1035
949
Uml 1 (1)300Stark bewölkt (61)Nebel (gefrierend)
ZUID-LIMBURG/BEE
NL 112
So 27.11. 10:258371 %1020
1020
1007
S 3 (7)>= 10000Nicht signifikant 
ZURICH-KLOTEN (A
CH 424
So 27.11. 10:202193 %1027
1030
977
SO 2 (3)
ONO - S
3500
Bald zeitweise: 5000
Bedeckt (120)Nebeldunst

Altimeter: Einstellung am Altimeter (Höhenmesser), die Höhe 0 muss auf diesen Luftdruckwert zeigen, damit das Gerät die Stationshöhe richtig anzeigt.

NN: Luftdruck reduziert auf "Normal Null", auf Meereshöhe, dieser von der Temperatur abhängige Wert wird bisweilen unkorrekt einfach als "Luftdruck" bezeichnet. Eigentlich nur eine fiktive Größe, die es erlaubt, Stationen auf unterschiedlichen Höhen miteinander zu vergleichen.

Station: Realer Luftdruck an der Station.